sensor_id;sensor_type;location;lat;lon;timestamp;P1;durP1;ratioP1;P2;durP2;ratioP2
68234;SDS011;55052;52.056;5.296;2023-07-13T00:00:12;9.65;;;2.83;;
68234;SDS011;55052;52.056;5.296;2023-07-13T00:02:42;8.20;;;2.28;;
68234;SDS011;55052;52.056;5.296;2023-07-13T00:05:10;9.20;;;2.17;;
68234;SDS011;55052;52.056;5.296;2023-07-13T00:07:37;12.35;;;2.58;;
68234;SDS011;55052;52.056;5.296;2023-07-13T00:10:04;10.68;;;1.90;;
68234;SDS011;55052;52.056;5.296;2023-07-13T00:12:35;10.85;;;2.53;;
68234;SDS011;55052;52.056;5.296;2023-07-13T00:15:04;8.30;;;2.20;;
68234;SDS011;55052;52.056;5.296;2023-07-13T00:17:34;9.10;;;2.30;;
68234;SDS011;55052;52.056;5.296;2023-07-13T00:20:00;10.50;;;2.22;;
68234;SDS011;55052;52.056;5.296;2023-07-13T00:22:28;7.60;;;2.00;;
68234;SDS011;55052;52.056;5.296;2023-07-13T00:24:55;8.75;;;2.70;;
68234;SDS011;55052;52.056;5.296;2023-07-13T00:27:23;8.88;;;2.30;;
68234;SDS011;55052;52.056;5.296;2023-07-13T00:29:52;13.40;;;2.60;;
68234;SDS011;55052;52.056;5.296;2023-07-13T00:32:19;9.15;;;2.22;;
68234;SDS011;55052;52.056;5.296;2023-07-13T00:34:46;8.68;;;2.40;;
68234;SDS011;55052;52.056;5.296;2023-07-13T00:37:13;9.93;;;2.50;;
68234;SDS011;55052;52.056;5.296;2023-07-13T00:39:41;10.63;;;2.35;;
68234;SDS011;55052;52.056;5.296;2023-07-13T00:42:08;9.52;;;2.47;;
68234;SDS011;55052;52.056;5.296;2023-07-13T00:44:35;8.35;;;2.35;;
68234;SDS011;55052;52.056;5.296;2023-07-13T00:47:01;9.20;;;2.45;;
68234;SDS011;55052;52.056;5.296;2023-07-13T00:49:29;12.35;;;2.60;;
68234;SDS011;55052;52.056;5.296;2023-07-13T00:52:03;9.55;;;2.25;;
68234;SDS011;55052;52.056;5.296;2023-07-13T00:54:34;16.10;;;3.17;;
68234;SDS011;55052;52.056;5.296;2023-07-13T00:57:09;7.40;;;2.20;;
68234;SDS011;55052;52.056;5.296;2023-07-13T00:59:41;7.75;;;2.03;;
68234;SDS011;55052;52.056;5.296;2023-07-13T01:02:17;8.30;;;2.15;;
68234;SDS011;55052;52.056;5.296;2023-07-13T01:04:44;9.30;;;2.53;;
68234;SDS011;55052;52.056;5.296;2023-07-13T01:07:11;6.43;;;2.08;;
68234;SDS011;55052;52.056;5.296;2023-07-13T01:09:39;10.93;;;2.13;;
68234;SDS011;55052;52.056;5.296;2023-07-13T01:12:06;6.55;;;2.20;;
68234;SDS011;55052;52.056;5.296;2023-07-13T01:14:33;9.75;;;2.40;;
68234;SDS011;55052;52.056;5.296;2023-07-13T01:17:00;8.70;;;2.50;;
68234;SDS011;55052;52.056;5.296;2023-07-13T01:19:33;8.63;;;2.45;;
68234;SDS011;55052;52.056;5.296;2023-07-13T01:24:36;7.80;;;2.40;;
68234;SDS011;55052;52.056;5.296;2023-07-13T01:27:04;10.68;;;2.83;;
68234;SDS011;55052;52.056;5.296;2023-07-13T01:29:33;7.20;;;2.40;;
68234;SDS011;55052;52.056;5.296;2023-07-13T01:32:01;10.15;;;2.45;;
68234;SDS011;55052;52.056;5.296;2023-07-13T01:34:28;7.82;;;2.25;;
68234;SDS011;55052;52.056;5.296;2023-07-13T01:36:55;16.15;;;2.67;;
68234;SDS011;55052;52.056;5.296;2023-07-13T01:39:22;10.20;;;2.10;;
68234;SDS011;55052;52.056;5.296;2023-07-13T01:41:49;9.25;;;2.15;;
68234;SDS011;55052;52.056;5.296;2023-07-13T01:44:16;11.55;;;2.35;;
68234;SDS011;55052;52.056;5.296;2023-07-13T01:46:43;9.20;;;2.53;;
68234;SDS011;55052;52.056;5.296;2023-07-13T01:49:10;6.93;;;2.45;;
68234;SDS011;55052;52.056;5.296;2023-07-13T01:51:37;10.27;;;2.83;;
68234;SDS011;55052;52.056;5.296;2023-07-13T01:54:03;11.40;;;2.53;;
68234;SDS011;55052;52.056;5.296;2023-07-13T01:56:31;7.80;;;2.42;;
68234;SDS011;55052;52.056;5.296;2023-07-13T01:58:57;8.85;;;2.70;;
68234;SDS011;55052;52.056;5.296;2023-07-13T02:01:24;9.23;;;2.70;;
68234;SDS011;55052;52.056;5.296;2023-07-13T02:03:51;9.70;;;2.40;;
68234;SDS011;55052;52.056;5.296;2023-07-13T02:06:19;11.00;;;2.90;;
68234;SDS011;55052;52.056;5.296;2023-07-13T02:08:45;9.32;;;2.40;;
68234;SDS011;55052;52.056;5.296;2023-07-13T02:11:12;9.70;;;2.83;;
68234;SDS011;55052;52.056;5.296;2023-07-13T02:13:39;10.95;;;2.90;;
68234;SDS011;55052;52.056;5.296;2023-07-13T02:16:06;10.25;;;3.15;;
68234;SDS011;55052;52.056;5.296;2023-07-13T02:18:33;6.88;;;2.38;;
68234;SDS011;55052;52.056;5.296;2023-07-13T02:21:00;8.85;;;2.80;;
68234;SDS011;55052;52.056;5.296;2023-07-13T02:23:28;10.57;;;2.90;;
68234;SDS011;55052;52.056;5.296;2023-07-13T02:25:56;11.32;;;2.80;;
68234;SDS011;55052;52.056;5.296;2023-07-13T02:28:23;10.40;;;2.80;;
68234;SDS011;55052;52.056;5.296;2023-07-13T02:30:50;9.40;;;2.70;;
68234;SDS011;55052;52.056;5.296;2023-07-13T02:33:17;10.27;;;2.58;;
68234;SDS011;55052;52.056;5.296;2023-07-13T02:35:44;8.38;;;2.47;;
68234;SDS011;55052;52.056;5.296;2023-07-13T02:38:11;7.63;;;3.25;;
68234;SDS011;55052;52.056;5.296;2023-07-13T02:40:38;10.75;;;3.00;;
68234;SDS011;55052;52.056;5.296;2023-07-13T02:43:05;13.27;;;2.97;;
68234;SDS011;55052;52.056;5.296;2023-07-13T02:45:31;9.13;;;2.88;;
68234;SDS011;55052;52.056;5.296;2023-07-13T02:47:58;9.27;;;2.97;;
68234;SDS011;55052;52.056;5.296;2023-07-13T02:50:25;10.43;;;2.88;;
68234;SDS011;55052;52.056;5.296;2023-07-13T02:52:52;13.55;;;3.50;;
68234;SDS011;55052;52.056;5.296;2023-07-13T02:55:19;10.30;;;2.60;;
68234;SDS011;55052;52.056;5.296;2023-07-13T02:57:45;10.45;;;3.22;;
68234;SDS011;55052;52.056;5.296;2023-07-13T03:00:12;10.27;;;3.42;;
68234;SDS011;55052;52.056;5.296;2023-07-13T03:02:39;13.55;;;2.90;;
68234;SDS011;55052;52.056;5.296;2023-07-13T03:05:06;11.43;;;3.40;;
68234;SDS011;55052;52.056;5.296;2023-07-13T03:07:34;11.60;;;3.58;;
68234;SDS011;55052;52.056;5.296;2023-07-13T03:10:00;13.85;;;3.60;;
68234;SDS011;55052;52.056;5.296;2023-07-13T03:12:27;11.40;;;3.33;;
68234;SDS011;55052;52.056;5.296;2023-07-13T03:14:54;10.52;;;3.42;;
68234;SDS011;55052;52.056;5.296;2023-07-13T03:17:21;12.93;;;3.10;;
68234;SDS011;55052;52.056;5.296;2023-07-13T03:19:47;9.95;;;3.22;;
68234;SDS011;55052;52.056;5.296;2023-07-13T03:22:19;9.93;;;3.22;;
68234;SDS011;55052;52.056;5.296;2023-07-13T03:27:13;11.23;;;3.10;;
68234;SDS011;55052;52.056;5.296;2023-07-13T03:29:39;11.02;;;3.58;;
68234;SDS011;55052;52.056;5.296;2023-07-13T03:32:06;11.50;;;3.75;;
68234;SDS011;55052;52.056;5.296;2023-07-13T03:34:34;13.07;;;3.63;;
68234;SDS011;55052;52.056;5.296;2023-07-13T03:37:00;10.32;;;3.70;;
68234;SDS011;55052;52.056;5.296;2023-07-13T03:39:27;11.57;;;3.40;;
68234;SDS011;55052;52.056;5.296;2023-07-13T03:41:54;10.52;;;2.90;;
68234;SDS011;55052;52.056;5.296;2023-07-13T03:44:22;12.85;;;3.40;;
68234;SDS011;55052;52.056;5.296;2023-07-13T03:46:48;11.90;;;3.28;;
68234;SDS011;55052;52.056;5.296;2023-07-13T03:49:15;14.02;;;3.45;;
68234;SDS011;55052;52.056;5.296;2023-07-13T03:51:42;9.20;;;2.90;;
68234;SDS011;55052;52.056;5.296;2023-07-13T03:54:09;13.48;;;3.40;;
68234;SDS011;55052;52.056;5.296;2023-07-13T03:56:36;8.60;;;3.22;;
68234;SDS011;55052;52.056;5.296;2023-07-13T03:59:02;12.27;;;3.40;;
68234;SDS011;55052;52.056;5.296;2023-07-13T04:01:29;17.67;;;3.70;;
68234;SDS011;55052;52.056;5.296;2023-07-13T04:03:57;11.50;;;4.00;;
68234;SDS011;55052;52.056;5.296;2023-07-13T04:06:29;10.18;;;3.13;;
68234;SDS011;55052;52.056;5.296;2023-07-13T04:08:57;9.93;;;3.53;;
68234;SDS011;55052;52.056;5.296;2023-07-13T04:11:26;11.73;;;4.00;;
68234;SDS011;55052;52.056;5.296;2023-07-13T04:13:55;15.23;;;3.53;;
68234;SDS011;55052;52.056;5.296;2023-07-13T04:16:22;11.93;;;3.72;;
68234;SDS011;55052;52.056;5.296;2023-07-13T04:18:49;13.60;;;4.15;;
68234;SDS011;55052;52.056;5.296;2023-07-13T04:21:16;15.75;;;4.75;;
68234;SDS011;55052;52.056;5.296;2023-07-13T04:23:43;12.13;;;4.30;;
68234;SDS011;55052;52.056;5.296;2023-07-13T04:26:10;13.80;;;4.10;;
68234;SDS011;55052;52.056;5.296;2023-07-13T04:28:38;14.75;;;4.28;;
68234;SDS011;55052;52.056;5.296;2023-07-13T04:31:06;14.52;;;4.40;;
68234;SDS011;55052;52.056;5.296;2023-07-13T04:33:32;17.83;;;4.28;;
68234;SDS011;55052;52.056;5.296;2023-07-13T04:36:00;12.20;;;4.35;;
68234;SDS011;55052;52.056;5.296;2023-07-13T04:38:29;14.98;;;4.40;;
68234;SDS011;55052;52.056;5.296;2023-07-13T04:40:58;16.95;;;3.92;;
68234;SDS011;55052;52.056;5.296;2023-07-13T04:43:28;18.45;;;4.60;;
68234;SDS011;55052;52.056;5.296;2023-07-13T04:45:55;11.98;;;4.07;;
68234;SDS011;55052;52.056;5.296;2023-07-13T04:48:23;17.23;;;4.63;;
68234;SDS011;55052;52.056;5.296;2023-07-13T04:50:56;14.40;;;4.22;;
68234;SDS011;55052;52.056;5.296;2023-07-13T04:53:25;18.63;;;4.75;;
68234;SDS011;55052;52.056;5.296;2023-07-13T04:55:52;15.95;;;4.50;;
68234;SDS011;55052;52.056;5.296;2023-07-13T04:58:19;17.35;;;5.32;;
68234;SDS011;55052;52.056;5.296;2023-07-13T05:00:47;15.73;;;5.03;;
68234;SDS011;55052;52.056;5.296;2023-07-13T05:03:14;12.60;;;4.15;;
68234;SDS011;55052;52.056;5.296;2023-07-13T05:05:41;13.98;;;4.95;;
68234;SDS011;55052;52.056;5.296;2023-07-13T05:08:08;16.75;;;4.95;;
68234;SDS011;55052;52.056;5.296;2023-07-13T05:10:35;16.13;;;5.03;;
68234;SDS011;55052;52.056;5.296;2023-07-13T05:13:02;16.02;;;4.75;;
68234;SDS011;55052;52.056;5.296;2023-07-13T05:15:29;22.48;;;5.75;;
68234;SDS011;55052;52.056;5.296;2023-07-13T05:17:56;14.43;;;4.68;;
68234;SDS011;55052;52.056;5.296;2023-07-13T05:20:23;14.18;;;5.20;;
68234;SDS011;55052;52.056;5.296;2023-07-13T05:22:49;18.30;;;5.93;;
68234;SDS011;55052;52.056;5.296;2023-07-13T05:25:17;19.73;;;6.05;;
68234;SDS011;55052;52.056;5.296;2023-07-13T05:27:44;18.27;;;5.53;;
68234;SDS011;55052;52.056;5.296;2023-07-13T05:30:12;16.45;;;5.57;;
68234;SDS011;55052;52.056;5.296;2023-07-13T05:32:39;20.05;;;5.78;;
68234;SDS011;55052;52.056;5.296;2023-07-13T05:35:07;16.98;;;5.90;;
68234;SDS011;55052;52.056;5.296;2023-07-13T05:37:34;19.80;;;6.07;;
68234;SDS011;55052;52.056;5.296;2023-07-13T05:40:03;20.25;;;6.10;;
68234;SDS011;55052;52.056;5.296;2023-07-13T05:42:30;21.88;;;6.82;;
68234;SDS011;55052;52.056;5.296;2023-07-13T05:44:57;21.65;;;6.00;;
68234;SDS011;55052;52.056;5.296;2023-07-13T05:47:24;19.10;;;6.55;;
68234;SDS011;55052;52.056;5.296;2023-07-13T05:49:51;20.45;;;6.20;;
68234;SDS011;55052;52.056;5.296;2023-07-13T05:52:18;18.52;;;6.85;;
68234;SDS011;55052;52.056;5.296;2023-07-13T05:54:44;20.45;;;7.50;;
68234;SDS011;55052;52.056;5.296;2023-07-13T05:57:11;22.52;;;6.38;;
68234;SDS011;55052;52.056;5.296;2023-07-13T05:59:38;19.10;;;6.88;;
68234;SDS011;55052;52.056;5.296;2023-07-13T06:02:07;20.85;;;7.60;;
68234;SDS011;55052;52.056;5.296;2023-07-13T06:04:36;22.85;;;7.20;;
68234;SDS011;55052;52.056;5.296;2023-07-13T06:07:04;21.38;;;7.35;;
68234;SDS011;55052;52.056;5.296;2023-07-13T06:09:32;18.80;;;7.53;;
68234;SDS011;55052;52.056;5.296;2023-07-13T06:11:59;19.88;;;7.13;;
68234;SDS011;55052;52.056;5.296;2023-07-13T06:14:25;24.38;;;8.25;;
68234;SDS011;55052;52.056;5.296;2023-07-13T06:16:52;21.45;;;7.47;;
68234;SDS011;55052;52.056;5.296;2023-07-13T06:19:19;26.38;;;8.13;;
68234;SDS011;55052;52.056;5.296;2023-07-13T06:21:46;27.50;;;8.88;;
68234;SDS011;55052;52.056;5.296;2023-07-13T06:24:13;20.75;;;7.90;;
68234;SDS011;55052;52.056;5.296;2023-07-13T06:26:39;22.50;;;8.75;;
68234;SDS011;55052;52.056;5.296;2023-07-13T06:29:06;24.90;;;9.32;;
68234;SDS011;55052;52.056;5.296;2023-07-13T06:31:33;25.42;;;9.85;;
68234;SDS011;55052;52.056;5.296;2023-07-13T06:34:00;23.80;;;10.32;;
68234;SDS011;55052;52.056;5.296;2023-07-13T06:36:27;21.85;;;9.43;;
68234;SDS011;55052;52.056;5.296;2023-07-13T06:38:54;25.73;;;9.65;;
68234;SDS011;55052;52.056;5.296;2023-07-13T06:41:21;27.17;;;10.07;;
68234;SDS011;55052;52.056;5.296;2023-07-13T06:43:48;22.98;;;9.35;;
68234;SDS011;55052;52.056;5.296;2023-07-13T06:46:15;25.02;;;10.77;;
68234;SDS011;55052;52.056;5.296;2023-07-13T06:48:42;20.80;;;9.50;;
68234;SDS011;55052;52.056;5.296;2023-07-13T06:51:09;26.92;;;9.90;;
68234;SDS011;55052;52.056;5.296;2023-07-13T06:53:36;32.72;;;11.10;;
68234;SDS011;55052;52.056;5.296;2023-07-13T06:56:03;22.50;;;10.20;;
68234;SDS011;55052;52.056;5.296;2023-07-13T06:58:30;22.90;;;10.75;;
68234;SDS011;55052;52.056;5.296;2023-07-13T07:00:57;24.20;;;9.73;;
68234;SDS011;55052;52.056;5.296;2023-07-13T07:03:24;31.70;;;10.50;;
68234;SDS011;55052;52.056;5.296;2023-07-13T07:05:51;26.23;;;10.50;;
68234;SDS011;55052;52.056;5.296;2023-07-13T07:08:18;28.20;;;9.60;;
68234;SDS011;55052;52.056;5.296;2023-07-13T07:10:44;24.35;;;9.73;;
68234;SDS011;55052;52.056;5.296;2023-07-13T07:13:12;22.13;;;9.45;;
68234;SDS011;55052;52.056;5.296;2023-07-13T07:15:39;22.38;;;9.48;;
68234;SDS011;55052;52.056;5.296;2023-07-13T07:18:06;24.77;;;10.05;;
68234;SDS011;55052;52.056;5.296;2023-07-13T07:20:33;23.60;;;10.10;;
68234;SDS011;55052;52.056;5.296;2023-07-13T07:23:00;27.45;;;9.95;;
68234;SDS011;55052;52.056;5.296;2023-07-13T07:25:27;26.45;;;10.00;;
68234;SDS011;55052;52.056;5.296;2023-07-13T07:27:58;25.02;;;10.15;;
68234;SDS011;55052;52.056;5.296;2023-07-13T07:30:28;24.20;;;9.82;;
68234;SDS011;55052;52.056;5.296;2023-07-13T07:32:58;26.73;;;10.18;;
68234;SDS011;55052;52.056;5.296;2023-07-13T07:35:27;27.05;;;9.85;;
68234;SDS011;55052;52.056;5.296;2023-07-13T07:37:58;25.25;;;10.07;;
68234;SDS011;55052;52.056;5.296;2023-07-13T07:40:25;25.35;;;10.05;;
68234;SDS011;55052;52.056;5.296;2023-07-13T07:45:22;19.45;;;10.10;;
68234;SDS011;55052;52.056;5.296;2023-07-13T07:47:49;22.45;;;9.98;;
68234;SDS011;55052;52.056;5.296;2023-07-13T07:50:16;23.92;;;9.93;;
68234;SDS011;55052;52.056;5.296;2023-07-13T07:52:43;27.80;;;10.52;;
68234;SDS011;55052;52.056;5.296;2023-07-13T07:55:10;18.58;;;10.93;;
68234;SDS011;55052;52.056;5.296;2023-07-13T07:57:40;23.25;;;10.82;;
68234;SDS011;55052;52.056;5.296;2023-07-13T08:00:10;25.20;;;10.15;;
68234;SDS011;55052;52.056;5.296;2023-07-13T08:05:27;18.60;;;10.65;;
68234;SDS011;55052;52.056;5.296;2023-07-13T08:07:57;23.55;;;9.60;;
68234;SDS011;55052;52.056;5.296;2023-07-13T08:10:24;17.35;;;8.93;;
68234;SDS011;55052;52.056;5.296;2023-07-13T08:12:51;18.05;;;8.88;;
68234;SDS011;55052;52.056;5.296;2023-07-13T08:15:20;20.48;;;9.18;;
68234;SDS011;55052;52.056;5.296;2023-07-13T08:17:48;17.90;;;8.10;;
68234;SDS011;55052;52.056;5.296;2023-07-13T08:20:16;14.27;;;6.35;;
68234;SDS011;55052;52.056;5.296;2023-07-13T08:22:43;19.05;;;6.30;;
68234;SDS011;55052;52.056;5.296;2023-07-13T08:25:09;15.48;;;6.10;;
68234;SDS011;55052;52.056;5.296;2023-07-13T08:27:36;15.63;;;5.13;;
68234;SDS011;55052;52.056;5.296;2023-07-13T08:30:03;12.55;;;4.78;;
68234;SDS011;55052;52.056;5.296;2023-07-13T08:32:31;15.15;;;4.32;;
68234;SDS011;55052;52.056;5.296;2023-07-13T08:34:58;12.20;;;3.63;;
68234;SDS011;55052;52.056;5.296;2023-07-13T08:37:25;10.80;;;3.00;;
68234;SDS011;55052;52.056;5.296;2023-07-13T08:39:52;10.15;;;3.30;;
68234;SDS011;55052;52.056;5.296;2023-07-13T08:45:03;9.27;;;3.67;;
68234;SDS011;55052;52.056;5.296;2023-07-13T08:47:39;9.53;;;3.93;;
68234;SDS011;55052;52.056;5.296;2023-07-13T08:50:15;11.57;;;4.25;;
68234;SDS011;55052;52.056;5.296;2023-07-13T08:52:44;14.35;;;4.85;;
68234;SDS011;55052;52.056;5.296;2023-07-13T08:57:41;13.05;;;4.43;;
68234;SDS011;55052;52.056;5.296;2023-07-13T09:00:13;8.75;;;3.70;;
68234;SDS011;55052;52.056;5.296;2023-07-13T09:02:45;8.35;;;3.65;;
68234;SDS011;55052;52.056;5.296;2023-07-13T09:05:14;10.93;;;3.17;;
68234;SDS011;55052;52.056;5.296;2023-07-13T09:08:06;8.10;;;3.17;;
68234;SDS011;55052;52.056;5.296;2023-07-13T09:10:49;9.18;;;3.10;;
68234;SDS011;55052;52.056;5.296;2023-07-13T09:13:48;10.95;;;3.10;;
68234;SDS011;55052;52.056;5.296;2023-07-13T09:16:31;10.93;;;3.50;;
68234;SDS011;55052;52.056;5.296;2023-07-13T09:19:01;10.55;;;3.05;;
68234;SDS011;55052;52.056;5.296;2023-07-13T09:21:36;10.35;;;3.47;;
68234;SDS011;55052;52.056;5.296;2023-07-13T09:27:03;7.82;;;3.60;;
68234;SDS011;55052;52.056;5.296;2023-07-13T09:30:00;8.30;;;3.78;;
68234;SDS011;55052;52.056;5.296;2023-07-13T09:32:38;11.57;;;3.10;;
68234;SDS011;55052;52.056;5.296;2023-07-13T09:35:14;10.10;;;3.65;;
68234;SDS011;55052;52.056;5.296;2023-07-13T09:37:45;7.70;;;2.90;;
68234;SDS011;55052;52.056;5.296;2023-07-13T09:40:25;7.47;;;2.67;;
68234;SDS011;55052;52.056;5.296;2023-07-13T09:43:27;6.65;;;2.50;;
68234;SDS011;55052;52.056;5.296;2023-07-13T09:45:55;9.45;;;3.13;;
68234;SDS011;55052;52.056;5.296;2023-07-13T09:48:22;9.75;;;3.13;;
68234;SDS011;55052;52.056;5.296;2023-07-13T09:50:54;6.13;;;2.80;;
68234;SDS011;55052;52.056;5.296;2023-07-13T09:53:22;7.18;;;2.72;;
68234;SDS011;55052;52.056;5.296;2023-07-13T09:55:49;8.20;;;2.60;;
68234;SDS011;55052;52.056;5.296;2023-07-13T09:58:20;9.07;;;3.07;;
68234;SDS011;55052;52.056;5.296;2023-07-13T10:00:56;10.93;;;3.03;;
68234;SDS011;55052;52.056;5.296;2023-07-13T10:03:29;7.88;;;2.78;;
68234;SDS011;55052;52.056;5.296;2023-07-13T10:06:10;9.63;;;3.30;;
68234;SDS011;55052;52.056;5.296;2023-07-13T10:08:46;8.25;;;3.30;;
68234;SDS011;55052;52.056;5.296;2023-07-13T10:16:23;7.90;;;3.13;;
68234;SDS011;55052;52.056;5.296;2023-07-13T10:21:26;8.45;;;3.08;;
68234;SDS011;55052;52.056;5.296;2023-07-13T10:24:19;7.75;;;3.13;;
68234;SDS011;55052;52.056;5.296;2023-07-13T10:29:58;9.88;;;2.70;;
68234;SDS011;55052;52.056;5.296;2023-07-13T10:32:49;7.10;;;2.17;;
68234;SDS011;55052;52.056;5.296;2023-07-13T10:35:17;6.38;;;2.50;;
68234;SDS011;55052;52.056;5.296;2023-07-13T10:38:06;6.60;;;2.10;;
68234;SDS011;55052;52.056;5.296;2023-07-13T10:43:41;4.47;;;2.08;;
68234;SDS011;55052;52.056;5.296;2023-07-13T10:46:06;6.43;;;2.45;;
68234;SDS011;55052;52.056;5.296;2023-07-13T10:48:36;3.78;;;2.00;;
68234;SDS011;55052;52.056;5.296;2023-07-13T10:51:05;7.05;;;2.30;;
68234;SDS011;55052;52.056;5.296;2023-07-13T10:53:37;6.75;;;2.67;;
68234;SDS011;55052;52.056;5.296;2023-07-13T10:58:48;7.03;;;2.70;;
68234;SDS011;55052;52.056;5.296;2023-07-13T11:04:22;8.75;;;2.78;;
68234;SDS011;55052;52.056;5.296;2023-07-13T11:06:58;7.72;;;2.80;;
68234;SDS011;55052;52.056;5.296;2023-07-13T11:09:36;6.40;;;2.60;;
68234;SDS011;55052;52.056;5.296;2023-07-13T11:19:54;8.73;;;2.67;;
68234;SDS011;55052;52.056;5.296;2023-07-13T11:23:26;4.20;;;2.22;;
68234;SDS011;55052;52.056;5.296;2023-07-13T11:25:47;6.75;;;2.50;;
68234;SDS011;55052;52.056;5.296;2023-07-13T11:28:20;6.65;;;2.45;;
68234;SDS011;55052;52.056;5.296;2023-07-13T11:30:59;8.32;;;2.50;;
68234;SDS011;55052;52.056;5.296;2023-07-13T11:33:30;5.55;;;2.53;;
68234;SDS011;55052;52.056;5.296;2023-07-13T11:36:18;6.78;;;2.60;;
68234;SDS011;55052;52.056;5.296;2023-07-13T11:38:59;6.10;;;2.20;;
68234;SDS011;55052;52.056;5.296;2023-07-13T11:41:31;8.50;;;2.85;;
68234;SDS011;55052;52.056;5.296;2023-07-13T11:46:38;7.25;;;2.65;;
68234;SDS011;55052;52.056;5.296;2023-07-13T11:49:14;8.77;;;2.78;;
68234;SDS011;55052;52.056;5.296;2023-07-13T11:51:42;7.00;;;2.60;;
68234;SDS011;55052;52.056;5.296;2023-07-13T11:54:17;11.20;;;3.63;;
68234;SDS011;55052;52.056;5.296;2023-07-13T11:56:52;8.80;;;3.50;;
68234;SDS011;55052;52.056;5.296;2023-07-13T11:59:23;8.75;;;2.83;;
68234;SDS011;55052;52.056;5.296;2023-07-13T12:01:52;8.02;;;2.90;;
68234;SDS011;55052;52.056;5.296;2023-07-13T12:04:22;6.68;;;2.83;;
68234;SDS011;55052;52.056;5.296;2023-07-13T12:06:57;9.00;;;2.85;;
68234;SDS011;55052;52.056;5.296;2023-07-13T12:09:30;6.15;;;2.95;;
68234;SDS011;55052;52.056;5.296;2023-07-13T12:11:57;7.00;;;2.50;;
68234;SDS011;55052;52.056;5.296;2023-07-13T12:14:28;9.98;;;3.05;;
68234;SDS011;55052;52.056;5.296;2023-07-13T12:16:55;7.03;;;2.45;;
68234;SDS011;55052;52.056;5.296;2023-07-13T12:19:23;9.00;;;2.47;;
68234;SDS011;55052;52.056;5.296;2023-07-13T12:21:59;10.70;;;2.58;;
68234;SDS011;55052;52.056;5.296;2023-07-13T12:24:26;6.78;;;2.45;;
68234;SDS011;55052;52.056;5.296;2023-07-13T12:27:03;7.13;;;2.83;;
68234;SDS011;55052;52.056;5.296;2023-07-13T12:29:31;6.35;;;2.78;;
68234;SDS011;55052;52.056;5.296;2023-07-13T12:31:59;6.72;;;2.88;;
68234;SDS011;55052;52.056;5.296;2023-07-13T12:34:26;5.88;;;2.30;;
68234;SDS011;55052;52.056;5.296;2023-07-13T12:36:54;5.22;;;2.60;;
68234;SDS011;55052;52.056;5.296;2023-07-13T12:39:34;7.18;;;2.45;;
68234;SDS011;55052;52.056;5.296;2023-07-13T12:42:37;5.20;;;2.28;;
68234;SDS011;55052;52.056;5.296;2023-07-13T12:45:02;6.50;;;2.40;;
68234;SDS011;55052;52.056;5.296;2023-07-13T12:47:40;5.13;;;2.38;;
68234;SDS011;55052;52.056;5.296;2023-07-13T12:50:14;6.28;;;2.30;;
68234;SDS011;55052;52.056;5.296;2023-07-13T12:52:42;6.30;;;2.10;;
68234;SDS011;55052;52.056;5.296;2023-07-13T12:55:15;6.75;;;2.60;;
68234;SDS011;55052;52.056;5.296;2023-07-13T12:57:53;6.30;;;2.33;;
68234;SDS011;55052;52.056;5.296;2023-07-13T13:00:29;5.90;;;2.50;;
68234;SDS011;55052;52.056;5.296;2023-07-13T13:03:05;6.75;;;2.20;;
68234;SDS011;55052;52.056;5.296;2023-07-13T13:06:35;7.72;;;2.55;;
68234;SDS011;55052;52.056;5.296;2023-07-13T13:08:48;5.70;;;2.42;;
68234;SDS011;55052;52.056;5.296;2023-07-13T13:11:17;7.82;;;2.50;;
68234;SDS011;55052;52.056;5.296;2023-07-13T13:13:45;6.45;;;2.88;;
68234;SDS011;55052;52.056;5.296;2023-07-13T13:16:22;5.10;;;2.70;;
68234;SDS011;55052;52.056;5.296;2023-07-13T13:18:51;6.25;;;2.63;;
68234;SDS011;55052;52.056;5.296;2023-07-13T13:21:19;6.65;;;2.50;;
68234;SDS011;55052;52.056;5.296;2023-07-13T13:23:46;5.82;;;2.75;;
68234;SDS011;55052;52.056;5.296;2023-07-13T13:26:14;7.18;;;2.95;;
68234;SDS011;55052;52.056;5.296;2023-07-13T13:28:44;5.95;;;2.63;;
68234;SDS011;55052;52.056;5.296;2023-07-13T13:31:11;5.45;;;2.60;;
68234;SDS011;55052;52.056;5.296;2023-07-13T13:33:40;6.88;;;2.38;;
68234;SDS011;55052;52.056;5.296;2023-07-13T13:36:21;6.35;;;2.50;;
68234;SDS011;55052;52.056;5.296;2023-07-13T13:38:49;4.75;;;2.13;;
68234;SDS011;55052;52.056;5.296;2023-07-13T13:41:17;5.68;;;2.50;;
68234;SDS011;55052;52.056;5.296;2023-07-13T13:43:44;5.30;;;2.45;;
68234;SDS011;55052;52.056;5.296;2023-07-13T13:48:43;8.30;;;2.50;;
68234;SDS011;55052;52.056;5.296;2023-07-13T13:51:13;5.90;;;2.50;;
68234;SDS011;55052;52.056;5.296;2023-07-13T13:53:40;4.97;;;2.45;;
68234;SDS011;55052;52.056;5.296;2023-07-13T13:56:07;4.68;;;2.30;;
68234;SDS011;55052;52.056;5.296;2023-07-13T13:58:34;6.85;;;2.78;;
68234;SDS011;55052;52.056;5.296;2023-07-13T14:01:02;7.25;;;3.00;;
68234;SDS011;55052;52.056;5.296;2023-07-13T14:03:29;5.97;;;2.40;;
68234;SDS011;55052;52.056;5.296;2023-07-13T14:05:56;6.25;;;2.88;;
68234;SDS011;55052;52.056;5.296;2023-07-13T14:08:23;7.35;;;2.70;;
68234;SDS011;55052;52.056;5.296;2023-07-13T14:10:51;8.50;;;2.60;;
68234;SDS011;55052;52.056;5.296;2023-07-13T14:13:26;6.15;;;2.22;;
68234;SDS011;55052;52.056;5.296;2023-07-13T14:15:57;9.05;;;2.72;;
68234;SDS011;55052;52.056;5.296;2023-07-13T14:18:25;4.53;;;2.38;;
68234;SDS011;55052;52.056;5.296;2023-07-13T14:20:52;6.47;;;2.33;;
68234;SDS011;55052;52.056;5.296;2023-07-13T14:23:19;4.28;;;2.00;;
68234;SDS011;55052;52.056;5.296;2023-07-13T14:25:46;5.43;;;2.30;;
68234;SDS011;55052;52.056;5.296;2023-07-13T14:28:23;5.25;;;2.28;;
68234;SDS011;55052;52.056;5.296;2023-07-13T14:30:52;6.50;;;2.53;;
68234;SDS011;55052;52.056;5.296;2023-07-13T14:33:23;5.22;;;2.20;;
68234;SDS011;55052;52.056;5.296;2023-07-13T14:35:50;8.00;;;2.28;;
68234;SDS011;55052;52.056;5.296;2023-07-13T14:38:19;8.05;;;2.20;;
68234;SDS011;55052;52.056;5.296;2023-07-13T14:40:46;3.75;;;1.90;;
68234;SDS011;55052;52.056;5.296;2023-07-13T14:43:14;6.30;;;2.20;;
68234;SDS011;55052;52.056;5.296;2023-07-13T14:45:48;4.70;;;2.10;;
68234;SDS011;55052;52.056;5.296;2023-07-13T14:48:20;6.60;;;2.05;;
68234;SDS011;55052;52.056;5.296;2023-07-13T14:50:53;4.05;;;1.92;;
68234;SDS011;55052;52.056;5.296;2023-07-13T14:53:27;8.82;;;2.53;;
68234;SDS011;55052;52.056;5.296;2023-07-13T14:58:21;7.43;;;2.63;;
68234;SDS011;55052;52.056;5.296;2023-07-13T15:00:48;5.00;;;2.25;;
68234;SDS011;55052;52.056;5.296;2023-07-13T15:03:20;6.10;;;2.45;;
68234;SDS011;55052;52.056;5.296;2023-07-13T15:05:50;5.80;;;2.05;;
68234;SDS011;55052;52.056;5.296;2023-07-13T15:08:19;6.32;;;2.15;;
68234;SDS011;55052;52.056;5.296;2023-07-13T15:10:46;4.25;;;2.15;;
68234;SDS011;55052;52.056;5.296;2023-07-13T15:13:19;5.45;;;1.80;;
68234;SDS011;55052;52.056;5.296;2023-07-13T15:15:48;7.38;;;2.20;;
68234;SDS011;55052;52.056;5.296;2023-07-13T15:18:20;4.80;;;1.88;;
68234;SDS011;55052;52.056;5.296;2023-07-13T15:20:49;5.72;;;2.08;;
68234;SDS011;55052;52.056;5.296;2023-07-13T15:23:18;6.38;;;2.10;;
68234;SDS011;55052;52.056;5.296;2023-07-13T15:25:45;5.35;;;2.08;;
68234;SDS011;55052;52.056;5.296;2023-07-13T15:28:12;5.13;;;1.80;;
68234;SDS011;55052;52.056;5.296;2023-07-13T15:30:46;4.75;;;2.08;;
68234;SDS011;55052;52.056;5.296;2023-07-13T15:33:16;5.43;;;1.92;;
68234;SDS011;55052;52.056;5.296;2023-07-13T15:35:48;5.18;;;2.20;;
68234;SDS011;55052;52.056;5.296;2023-07-13T15:38:18;4.28;;;1.95;;
68234;SDS011;55052;52.056;5.296;2023-07-13T15:40:49;7.15;;;2.28;;
68234;SDS011;55052;52.056;5.296;2023-07-13T15:43:17;6.25;;;1.80;;
68234;SDS011;55052;52.056;5.296;2023-07-13T15:45:45;9.10;;;2.38;;
68234;SDS011;55052;52.056;5.296;2023-07-13T15:48:14;5.68;;;1.98;;